Time,TemperatureF,DewpointF,PressureIn,WindDirection,WindDirectionDegrees,WindSpeedMPH,WindSpeedGustMPH,Humidity,HourlyPrecipIn,Conditions,Clouds,dailyrainin,SolarRadiationWatts/m^2,SoftwareType,DateUTC
2013-05-26 00:00:00,37.0,34.0,-100.00,SW,225,0.0,-999.0,87,-99.99,,,-99.99,0.000000,,2013-05-26 04:00:00,
2013-05-26 00:33:00,37.0,34.0,-100.00,SW,225,0.0,-999.0,87,-99.99,,,-99.99,0.000000,,2013-05-26 04:33:00,
2013-05-26 00:43:00,37.0,34.0,-100.00,SW,225,0.0,-999.0,87,-99.99,,,-99.99,0.000000,,2013-05-26 04:43:00,
2013-05-26 00:52:00,37.0,34.0,-100.00,SW,225,0.0,-999.0,87,-99.99,,,-99.99,0.000000,,2013-05-26 04:52:00,
2013-05-26 01:00:00,38.0,32.0,-100.00,SSE,157,1.0,-999.0,79,-99.99,,,-99.99,0.000000,,2013-05-26 05:00:00,
2013-05-26 01:32:00,38.0,32.0,-100.00,SSE,157,1.0,-999.0,79,-99.99,,,-99.99,0.000000,,2013-05-26 05:32:00,
2013-05-26 01:42:00,38.0,32.0,-100.00,SSE,157,1.0,-999.0,79,-99.99,,,-99.99,0.000000,,2013-05-26 05:42:00,
2013-05-26 01:52:00,38.0,32.0,-100.00,SSE,157,1.0,-999.0,79,-99.99,,,-99.99,0.000000,,2013-05-26 05:52:00,
2013-05-26 02:00:00,38.0,31.0,-100.00,ESE,112,1.0,-999.0,73,-99.99,,,-99.99,0.000000,,2013-05-26 06:00:00,
2013-05-26 02:32:00,38.0,31.0,-100.00,ESE,112,1.0,-999.0,73,-99.99,,,-99.99,0.000000,,2013-05-26 06:32:00,
2013-05-26 02:42:00,38.0,31.0,-100.00,ESE,112,1.0,-999.0,73,-99.99,,,-99.99,0.000000,,2013-05-26 06:42:00,
2013-05-26 02:52:00,38.0,31.0,-100.00,ESE,112,1.0,-999.0,73,-99.99,,,-99.99,0.000000,,2013-05-26 06:52:00,
2013-05-26 03:00:00,41.0,30.0,-100.00,WSW,247,1.0,-999.0,63,-99.99,,,-99.99,0.000000,,2013-05-26 07:00:00,
2013-05-26 03:32:00,41.0,30.0,-100.00,WSW,247,1.0,-999.0,63,-99.99,,,-99.99,0.000000,,2013-05-26 07:32:00,
2013-05-26 03:42:00,41.0,30.0,-100.00,WSW,247,1.0,-999.0,63,-99.99,,,-99.99,0.000000,,2013-05-26 07:42:00,
2013-05-26 03:52:00,41.0,30.0,-100.00,WSW,247,1.0,-999.0,63,-99.99,,,-99.99,0.000000,,2013-05-26 07:52:00,
2013-05-26 04:00:00,37.0,31.0,-100.00,SSE,157,0.0,-999.0,78,-99.99,,,-99.99,0.000000,,2013-05-26 08:00:00,
2013-05-26 04:32:00,37.0,31.0,-100.00,SSE,157,0.0,-999.0,78,-99.99,,,-99.99,0.000000,,2013-05-26 08:32:00,
2013-05-26 04:42:00,37.0,31.0,-100.00,SSE,157,0.0,-999.0,78,-99.99,,,-99.99,0.000000,,2013-05-26 08:42:00,
2013-05-26 04:53:00,37.0,31.0,-100.00,SSE,157,0.0,-999.0,78,-99.99,,,-99.99,0.000000,,2013-05-26 08:53:00,
2013-05-26 05:00:00,35.0,31.0,-100.00,ESE,112,0.0,-999.0,85,-99.99,,,-99.99,0.000000,,2013-05-26 09:00:00,
2013-05-26 05:34:00,35.0,31.0,-100.00,ESE,112,0.0,-999.0,85,-99.99,,,-99.99,0.000000,,2013-05-26 09:34:00,
2013-05-26 05:43:00,35.0,31.0,-100.00,ESE,112,0.0,-999.0,85,-99.99,,,-99.99,0.000000,,2013-05-26 09:43:00,
2013-05-26 05:53:00,35.0,31.0,-100.00,ESE,112,0.0,-999.0,85,-99.99,,,-99.99,0.000000,,2013-05-26 09:53:00,
2013-05-26 06:00:00,34.0,31.0,-100.00,West,270,0.0,-999.0,90,-99.99,,,-99.99,1.160000,,2013-05-26 10:00:00,
2013-05-26 06:33:00,34.0,31.0,-100.00,West,270,0.0,-999.0,90,-99.99,,,-99.99,1.160000,,2013-05-26 10:33:00,
2013-05-26 06:42:00,34.0,31.0,-100.00,West,270,0.0,-999.0,90,-99.99,,,-99.99,1.160000,,2013-05-26 10:42:00,
2013-05-26 06:52:00,34.0,31.0,-100.00,West,270,0.0,-999.0,90,-99.99,,,-99.99,1.160000,,2013-05-26 10:52:00,
2013-05-26 07:00:00,35.0,33.0,-100.00,West,270,0.0,-999.0,92,-99.99,,,-99.99,15.080000,,2013-05-26 11:00:00,
2013-05-26 07:32:00,35.0,33.0,-100.00,West,270,0.0,-999.0,92,-99.99,,,-99.99,15.080000,,2013-05-26 11:32:00,
2013-05-26 07:42:00,35.0,33.0,-100.00,West,270,0.0,-999.0,92,-99.99,,,-99.99,15.080000,,2013-05-26 11:42:00,
2013-05-26 07:52:00,35.0,33.0,-100.00,West,270,0.0,-999.0,92,-99.99,,,-99.99,15.080000,,2013-05-26 11:52:00,
2013-05-26 08:00:00,46.0,38.0,-100.00,ESE,112,1.0,-999.0,74,-99.99,,,-99.99,185.600006,,2013-05-26 12:00:00,
2013-05-26 08:32:00,46.0,38.0,-100.00,ESE,112,1.0,-999.0,74,-99.99,,,-99.99,185.600006,,2013-05-26 12:32:00,
2013-05-26 08:42:00,46.0,38.0,-100.00,ESE,112,1.0,-999.0,74,-99.99,,,-99.99,185.600006,,2013-05-26 12:42:00,
2013-05-26 08:52:00,46.0,38.0,-100.00,ESE,112,1.0,-999.0,74,-99.99,,,-99.99,185.600006,,2013-05-26 12:52:00,
2013-05-26 09:00:00,52.0,36.0,-100.00,ESE,112,3.0,-999.0,52,-99.99,,,-99.99,367.720001,,2013-05-26 13:00:00,
2013-05-26 09:32:00,52.0,36.0,-100.00,ESE,112,3.0,-999.0,52,-99.99,,,-99.99,367.720001,,2013-05-26 13:32:00,
2013-05-26 09:42:00,52.0,36.0,-100.00,ESE,112,3.0,-999.0,52,-99.99,,,-99.99,367.720001,,2013-05-26 13:42:00,
2013-05-26 09:52:00,52.0,36.0,-100.00,ESE,112,3.0,-999.0,52,-99.99,,,-99.99,367.720001,,2013-05-26 13:52:00,
2013-05-26 12:00:00,59.0,33.0,-100.00,ESE,112,4.0,-999.0,37,-99.99,,,-99.99,792.280029,,2013-05-26 16:00:00,
2013-05-26 12:33:00,59.0,33.0,-100.00,ESE,112,4.0,-999.0,37,-99.99,,,-99.99,792.280029,,2013-05-26 16:33:00,
2013-05-26 12:42:00,59.0,33.0,-100.00,ESE,112,4.0,-999.0,37,-99.99,,,-99.99,792.280029,,2013-05-26 16:42:00,
2013-05-26 12:53:00,59.0,33.0,-100.00,ESE,112,4.0,-999.0,37,-99.99,,,-99.99,792.280029,,2013-05-26 16:53:00,
2013-05-26 14:00:00,63.0,39.0,-100.00,ESE,112,5.0,-999.0,40,-99.99,,,-99.99,900.159973,,2013-05-26 18:00:00,
2013-05-26 14:32:00,63.0,39.0,-100.00,ESE,112,5.0,-999.0,40,-99.99,,,-99.99,900.159973,,2013-05-26 18:32:00,
2013-05-26 14:42:00,63.0,39.0,-100.00,ESE,112,5.0,-999.0,40,-99.99,,,-99.99,900.159973,,2013-05-26 18:42:00,
2013-05-26 14:52:00,63.0,39.0,-100.00,ESE,112,5.0,-999.0,40,-99.99,,,-99.99,900.159973,,2013-05-26 18:52:00,
2013-05-26 15:00:00,62.0,36.0,-100.00,ESE,112,6.0,-999.0,36,-99.99,,,-99.99,854.919983,,2013-05-26 19:00:00,
2013-05-26 15:32:00,62.0,36.0,-100.00,ESE,112,6.0,-999.0,36,-99.99,,,-99.99,854.919983,,2013-05-26 19:32:00,
2013-05-26 15:42:00,62.0,36.0,-100.00,ESE,112,6.0,-999.0,36,-99.99,,,-99.99,854.919983,,2013-05-26 19:42:00,
2013-05-26 15:52:00,62.0,36.0,-100.00,ESE,112,6.0,-999.0,36,-99.99,,,-99.99,854.919983,,2013-05-26 19:52:00,
2013-05-26 16:00:00,62.0,34.0,-100.00,SE,135,5.0,-999.0,35,-99.99,,,-99.99,770.239990,,2013-05-26 20:00:00,
2013-05-26 16:32:00,62.0,34.0,-100.00,SE,135,5.0,-999.0,35,-99.99,,,-99.99,770.239990,,2013-05-26 20:32:00,
2013-05-26 16:42:00,62.0,34.0,-100.00,SE,135,5.0,-999.0,35,-99.99,,,-99.99,770.239990,,2013-05-26 20:42:00,
2013-05-26 16:53:00,62.0,34.0,-100.00,SE,135,5.0,-999.0,35,-99.99,,,-99.99,770.239990,,2013-05-26 20:53:00,
2013-05-26 17:00:00,62.0,32.0,-100.00,SSE,157,5.0,-999.0,32,-99.99,,,-99.99,689.039978,,2013-05-26 21:00:00,
2013-05-26 17:33:00,62.0,32.0,-100.00,SSE,157,5.0,-999.0,32,-99.99,,,-99.99,689.039978,,2013-05-26 21:33:00,
2013-05-26 17:43:00,62.0,32.0,-100.00,SSE,157,5.0,-999.0,32,-99.99,,,-99.99,689.039978,,2013-05-26 21:43:00,
2013-05-26 17:53:00,62.0,32.0,-100.00,SSE,157,5.0,-999.0,32,-99.99,,,-99.99,689.039978,,2013-05-26 21:53:00,
2013-05-26 18:00:00,61.0,32.0,-100.00,East,90,5.0,-999.0,33,-99.99,,,-99.99,538.239990,,2013-05-26 22:00:00,
2013-05-26 18:33:00,61.0,32.0,-100.00,East,90,5.0,-999.0,33,-99.99,,,-99.99,538.239990,,2013-05-26 22:33:00,
2013-05-26 18:42:00,61.0,32.0,-100.00,East,90,5.0,-999.0,33,-99.99,,,-99.99,538.239990,,2013-05-26 22:42:00,
2013-05-26 18:53:00,61.0,32.0,-100.00,East,90,5.0,-999.0,33,-99.99,,,-99.99,538.239990,,2013-05-26 22:53:00,
2013-05-26 19:00:00,62.0,32.0,-100.00,SSW,202,3.0,-999.0,32,-99.99,,,-99.99,343.359985,,2013-05-26 23:00:00,
2013-05-26 19:32:00,62.0,32.0,-100.00,SSW,202,3.0,-999.0,32,-99.99,,,-99.99,343.359985,,2013-05-26 23:32:00,
2013-05-26 19:43:00,62.0,32.0,-100.00,SSW,202,3.0,-999.0,32,-99.99,,,-99.99,343.359985,,2013-05-26 23:43:00,
2013-05-26 19:52:00,62.0,32.0,-100.00,SSW,202,3.0,-999.0,32,-99.99,,,-99.99,343.359985,,2013-05-26 23:52:00,
2013-05-26 21:00:00,54.0,33.0,-100.00,SW,225,1.0,-999.0,43,-99.99,,,-99.99,58.000000,,2013-05-27 01:00:00,
2013-05-26 21:32:00,54.0,33.0,-100.00,SW,225,1.0,-999.0,43,-99.99,,,-99.99,58.000000,,2013-05-27 01:32:00,
2013-05-26 21:42:00,54.0,33.0,-100.00,SW,225,1.0,-999.0,43,-99.99,,,-99.99,58.000000,,2013-05-27 01:42:00,
2013-05-26 21:52:00,54.0,33.0,-100.00,SW,225,1.0,-999.0,43,-99.99,,,-99.99,58.000000,,2013-05-27 01:52:00,
2013-05-26 22:00:00,46.0,31.0,-100.00,South,180,1.0,-999.0,56,-99.99,,,-99.99,2.320000,,2013-05-27 02:00:00,
2013-05-26 22:32:00,46.0,31.0,-100.00,South,180,1.0,-999.0,56,-99.99,,,-99.99,2.320000,,2013-05-27 02:32:00,
2013-05-26 22:43:00,46.0,31.0,-100.00,South,180,1.0,-999.0,56,-99.99,,,-99.99,2.320000,,2013-05-27 02:43:00,
2013-05-26 22:52:00,46.0,31.0,-100.00,South,180,1.0,-999.0,56,-99.99,,,-99.99,2.320000,,2013-05-27 02:52:00,
2013-05-26 23:00:00,43.0,32.0,-100.00,SSE,157,0.0,-999.0,63,-99.99,,,-99.99,0.000000,,2013-05-27 03:00:00,
2013-05-26 23:33:00,43.0,32.0,-100.00,SSE,157,0.0,-999.0,63,-99.99,,,-99.99,0.000000,,2013-05-27 03:33:00,
2013-05-26 23:43:00,43.0,32.0,-100.00,SSE,157,0.0,-999.0,63,-99.99,,,-99.99,0.000000,,2013-05-27 03:43:00,
2013-05-26 23:53:00,43.0,32.0,-100.00,SSE,157,0.0,-999.0,63,-99.99,,,-99.99,0.000000,,2013-05-27 03:53:00,